Time;durP1;ratioP1;P1;durP2;ratioP2;P2;SDS_P1;SDS_P2;PMS_P1;PMS_P2;Temp;Humidity;BMP_temperature;BMP_pressure;BME280_temperature;BME280_humidity;BME280_pressure;Samples;Min_cycle;Max_cycle;Signal;HPM_P1;HPM_P2
2021/08/25 00:00:43;;;;;;;6.35;4.25;;;;;;;6.02;75.05;100468.52;1764135;80;21009;-62
2021/08/25 00:03:10;;;;;;;10.20;4.33;;;;;;;6.01;75.11;100465.94;1743576;79;21989;-62
2021/08/25 00:05:37;;;;;;;8.40;4.67;;;;;;;6.01;75.15;100464.19;1765426;78;20989;-62
2021/08/25 00:08:05;;;;;;;20.73;4.80;;;;;;;6.00;75.12;100462.48;1732876;80;20970;-62
2021/08/25 00:10:33;;;;;;;5.05;3.58;;;;;;;5.97;75.11;100462.55;1772162;79;21000;-62
2021/08/25 00:13:02;;;;;;;11.22;4.47;;;;;;;5.97;75.16;100453.92;1736542;79;20973;-62
2021/08/25 00:15:28;;;;;;;9.35;5.50;;;;;;;5.96;75.21;100450.45;1772763;79;21076;-62
2021/08/25 00:17:54;;;;;;;9.67;5.83;;;;;;;5.95;75.24;100443.56;1765220;79;20992;-62
2021/08/25 00:20:21;;;;;;;7.92;5.53;;;;;;;5.96;75.36;100443.11;1771792;79;20916;-62
2021/08/25 00:22:48;;;;;;;10.95;6.53;;;;;;;5.97;75.44;100440.52;1757265;79;21510;-62
2021/08/25 00:25:15;;;;;;;8.58;5.05;;;;;;;5.98;75.53;100434.44;1756737;80;22247;-62
2021/08/25 00:27:42;;;;;;;8.85;5.12;;;;;;;6.00;75.65;100431.38;1743286;79;21317;-62
2021/08/25 00:30:10;;;;;;;7.40;4.90;;;;;;;6.01;75.67;100425.30;1763736;78;21048;-62
2021/08/25 00:32:36;;;;;;;9.98;5.08;;;;;;;5.99;75.66;100427.09;1772198;78;20978;-62
2021/08/25 00:35:04;;;;;;;7.37;4.50;;;;;;;5.92;75.56;100422.84;1768060;78;21609;-62
2021/08/25 00:37:31;;;;;;;10.98;4.40;;;;;;;5.87;75.65;100418.17;1766510;78;21021;-62
2021/08/25 00:39:59;;;;;;;7.83;4.62;;;;;;;5.87;75.65;100416.87;1738602;79;22123;-62
2021/08/25 00:42:26;;;;;;;6.40;3.95;;;;;;;5.82;75.66;100417.39;1760620;78;21293;-62
2021/08/25 00:44:53;;;;;;;7.33;4.58;;;;;;;5.77;75.70;100410.13;1779233;77;21029;-62
2021/08/25 00:47:20;;;;;;;9.00;4.05;;;;;;;5.71;75.72;100414.13;1755563;79;22507;-62
2021/08/25 00:49:47;;;;;;;8.40;3.75;;;;;;;5.69;75.84;100409.42;1737517;79;21049;-62
2021/08/25 00:52:14;;;;;;;6.60;4.50;;;;;;;5.66;75.85;100406.86;1730286;80;21151;-62
2021/08/25 00:54:41;;;;;;;;;;;;;;;5.62;75.86;100395.70;1761163;78;20970;-62
2021/08/25 00:57:08;;;;;;;6.60;3.80;;;;;;;5.57;75.96;100395.80;1730955;80;20124;-62
2021/08/25 00:59:35;;;;;;;9.18;4.40;;;;;;;5.52;75.94;100392.41;1774317;78;21046;-62
2021/08/25 01:02:37;;;;;;;7.00;4.60;;;;;;;5.48;76.05;100392.47;1768858;78;21721;-62
2021/08/25 01:05:07;;;;;;;8.85;4.60;;;;;;;5.45;76.19;100390.78;1768195;78;21149;-63
2021/08/25 01:07:37;;;;;;;7.17;4.60;;;;;;;5.47;76.30;100389.03;1760923;79;21464;-63
2021/08/25 01:10:28;;;;;;;5.87;3.90;;;;;;;5.51;76.35;100379.47;1767701;77;20969;-63
2021/08/25 01:13:00;;;;;;;10.18;4.30;;;;;;;5.51;76.33;100373.84;1769196;78;20993;-62
2021/08/25 01:15:49;;;;;;;14.85;4.47;;;;;;;5.46;76.29;100375.69;1772724;78;20985;-62
2021/08/25 01:18:17;;;;;;;20.32;6.22;;;;;;;5.40;76.37;100362.80;1715626;80;21142;-62
2021/08/25 01:20:48;;;;;;;9.70;5.58;;;;;;;5.37;76.47;100353.80;1711703;81;20993;-62
2021/08/25 01:23:23;;;;;;;7.58;5.33;;;;;;;5.34;76.53;100353.40;1684033;83;20992;-62
2021/08/25 01:25:59;;;;;;;9.20;5.10;;;;;;;5.34;76.61;100349.52;1692576;81;20969;-62
2021/08/25 01:28:36;;;;;;;10.68;5.50;;;;;;;5.34;76.68;100343.48;1672947;83;21633;-63
2021/08/25 01:31:03;;;;;;;10.75;5.40;;;;;;;5.32;76.67;100347.83;1697656;81;21937;-61
2021/08/25 01:33:30;;;;;;;8.83;4.83;;;;;;;5.28;76.72;100341.00;1695919;82;21236;-61
2021/08/25 01:35:58;;;;;;;8.33;5.70;;;;;;;5.26;76.80;100342.75;1698414;82;21082;-61
2021/08/25 01:38:36;;;;;;;7.65;4.90;;;;;;;5.24;76.83;100334.17;1692764;82;21579;-61
2021/08/25 01:41:04;;;;;;;9.60;4.58;;;;;;;5.23;76.89;100332.44;1689812;81;21068;-62
2021/08/25 01:43:34;;;;;;;10.08;4.83;;;;;;;5.20;76.95;100329.91;1702006;82;21071;-62
2021/08/25 01:46:00;;;;;;;8.25;4.83;;;;;;;5.20;77.07;100332.49;1696486;82;22668;-62
2021/08/25 01:48:30;;;;;;;12.17;6.20;;;;;;;5.20;77.04;100327.31;1695464;81;21037;-62
2021/08/25 01:50:57;;;;;;;7.37;4.33;;;;;;;5.21;77.10;100325.13;1697268;82;21133;-62
2021/08/25 01:53:24;;;;;;;12.18;4.58;;;;;;;5.22;77.12;100324.27;1702932;82;20974;-62
2021/08/25 01:55:51;;;;;;;8.07;4.53;;;;;;;5.23;77.16;100320.79;1701858;81;21120;-62
2021/08/25 12:37:18;;;;;;;31.82;5.37;;;;;;;18.30;53.70;99182.58;1837374;75;22083;-77
2021/08/25 12:39:46;;;;;;;42.03;5.37;;;;;;;18.25;53.68;99171.57;1807880;77;20971;-79
2021/08/25 12:42:12;;;;;;;50.90;6.28;;;;;;;18.21;53.72;99167.54;1747377;80;21136;-77
2021/08/25 12:44:39;;;;;;;117.28;13.20;;;;;;;18.18;53.72;99159.89;1750402;80;20983;-79
2021/08/25 12:47:06;;;;;;;69.80;7.62;;;;;;;18.18;53.68;99145.35;1750473;80;21140;-76
2021/08/25 12:49:35;;;;;;;30.08;5.53;;;;;;;18.21;53.70;99138.47;1748258;79;22256;-77
2021/08/25 12:52:04;;;;;;;66.67;7.97;;;;;;;18.25;53.73;99134.58;1750333;79;21039;-77
2021/08/25 12:54:31;;;;;;;12.05;3.75;;;;;;;18.35;53.95;99135.44;1750517;80;21875;-71
2021/08/25 12:56:58;;;;;;;82.75;7.92;;;;;;;18.46;53.64;99134.00;1751941;79;21306;-74
2021/08/25 12:59:25;;;;;;;104.63;13.90;;;;;;;18.54;53.79;99126.68;1752100;79;21654;-74
2021/08/25 13:01:51;;;;;;;26.45;5.67;;;;;;;18.72;53.82;99118.92;1751600;79;21015;-75
2021/08/25 13:04:18;;;;;;;33.98;4.75;;;;;;;18.86;53.64;99115.88;1754593;79;22292;-73
2021/08/25 13:06:45;;;;;;;;;;;;;;;18.99;53.45;99108.50;1757766;79;21103;-71
2021/08/25 13:09:11;;;;;;;25.77;4.20;;;;;;;19.03;53.33;99110.86;1755671;79;20271;-72
2021/08/25 13:11:39;;;;;;;54.70;6.83;;;;;;;19.05;53.61;99114.20;1751104;79;21057;-71
2021/08/25 13:14:06;;;;;;;87.20;10.00;;;;;;;19.25;53.54;99092.02;1752676;79;22325;-72
2021/08/25 13:16:33;;;;;;;132.18;13.58;;;;;;;19.39;53.53;99084.11;1754299;79;21105;-72
2021/08/25 13:19:00;;;;;;;32.85;5.12;;;;;;;19.55;53.37;99082.15;1748464;80;21288;-73
2021/08/25 13:21:27;;;;;;;84.47;9.10;;;;;;;19.63;53.02;99086.23;1771485;79;24392;-74
2021/08/25 13:23:55;;;;;;;222.63;28.27;;;;;;;19.59;52.97;99079.08;1771931;78;21000;-73
2021/08/25 13:26:22;;;;;;;140.82;14.40;;;;;;;19.73;53.30;99085.74;1770586;78;21097;-74
2021/08/25 13:28:49;;;;;;;;;;;;;;;19.94;52.77;99078.03;1781805;78;21792;-72
2021/08/25 13:31:17;;;;;;;;;;;;;;;19.97;52.56;99077.73;1782722;78;21102;-72
2021/08/25 13:33:44;;;;;;;76.67;9.43;;;;;;;19.93;52.16;99061.80;1774922;78;20234;-70
2021/08/25 13:36:13;;;;;;;134.72;14.28;;;;;;;20.03;52.59;99053.31;1746052;80;20927;-71
2021/08/25 13:38:40;;;;;;;231.15;20.17;;;;;;;20.03;52.16;99059.94;1745287;79;21042;-70
2021/08/25 13:41:07;;;;;;;82.12;11.43;;;;;;;19.86;51.78;99061.57;1744419;80;28052;-69
2021/08/25 13:43:34;;;;;;;64.45;7.58;;;;;;;19.70;52.00;99052.93;1765900;80;21081;-70
2021/08/25 13:46:01;;;;;;;77.03;9.95;;;;;;;19.63;51.80;99043.86;1739184;81;20997;-71
2021/08/25 13:48:27;;;;;;;60.75;7.95;;;;;;;19.47;51.88;99037.06;1755097;79;21044;-71
2021/08/25 13:50:54;;;;;;;40.88;6.28;;;;;;;19.38;51.69;99019.75;1757138;79;20991;-70
2021/08/25 13:53:20;;;;;;;44.00;5.75;;;;;;;19.24;51.61;99021.55;1756245;79;21209;-70
2021/08/25 13:55:47;;;;;;;50.88;11.05;;;;;;;19.06;51.40;99025.91;1755085;79;21898;-69
2021/08/25 13:58:14;;;;;;;71.28;8.65;;;;;;;18.82;51.49;99019.30;1752764;80;21058;-69
2021/08/25 14:00:40;;;;;;;119.75;12.53;;;;;;;18.61;51.58;99017.27;1753929;79;21017;-69
2021/08/25 14:03:07;;;;;;;117.25;19.30;;;;;;;18.42;51.56;99007.03;1750816;80;21081;-70
2021/08/25 14:05:34;;;;;;;47.75;22.35;;;;;;;18.25;51.65;99002.45;1735056;80;21062;-70
2021/08/25 14:08:00;;;;;;;26.07;6.90;;;;;;;18.09;51.70;99005.17;1742491;80;21390;-78
2021/08/25 14:10:29;;;;;;;15.85;9.53;;;;;;;17.92;51.74;99001.86;1764405;79;22304;-62
2021/08/25 14:12:56;;;;;;;74.27;7.15;;;;;;;17.76;51.82;99010.79;1747868;79;21303;-62
2021/08/25 14:15:23;;;;;;;49.40;7.22;;;;;;;17.62;51.86;99006.23;1747777;81;21054;-62
2021/08/25 14:17:49;;;;;;;100.27;12.23;;;;;;;17.53;51.91;99003.09;1728190;81;21029;-66
2021/08/25 14:20:16;;;;;;;132.35;24.18;;;;;;;17.44;52.09;99001.23;1766463;79;21243;-67
2021/08/25 14:22:43;;;;;;;54.48;16.27;;;;;;;17.38;52.19;99003.91;1769422;79;21111;-67
2021/08/25 14:25:10;;;;;;;98.70;41.83;;;;;;;17.33;52.13;98992.09;1751556;80;21101;-69
2021/08/25 14:27:38;;;;;;;41.10;9.28;;;;;;;17.20;52.27;98999.76;1740843;81;21091;-67
2021/08/25 14:30:06;;;;;;;121.85;15.48;;;;;;;17.12;52.37;98985.08;1751087;80;21065;-67
2021/08/25 14:32:32;;;;;;;63.85;7.70;;;;;;;17.02;52.54;98989.45;1755562;80;20985;-67
2021/08/25 14:37:38;;;;;;;18.27;4.08;;;;;;;17.01;52.78;98987.80;1839723;76;22820;-68
2021/08/25 14:40:08;;;;;;;130.27;16.50;;;;;;;16.96;52.84;98983.39;1812516;78;21003;-67
2021/08/25 14:42:34;;;;;;;105.07;12.37;;;;;;;16.93;52.94;98979.70;1816647;78;21037;-68
2021/08/25 14:45:01;;;;;;;35.70;6.40;;;;;;;16.92;53.14;98962.23;1819117;77;20989;-75
2021/08/25 14:47:28;;;;;;;46.05;7.47;;;;;;;16.92;53.21;98962.23;1820262;78;21736;-68
2021/08/25 14:49:55;;;;;;;24.63;4.92;;;;;;;16.90;53.23;98949.64;1812519;77;28127;-68
2021/08/25 14:52:21;;;;;;;63.42;8.75;;;;;;;16.84;53.28;98946.22;1817520;78;21008;-68
2021/08/25 14:54:48;;;;;;;7.53;3.45;;;;;;;16.73;53.41;98941.34;1815909;78;21925;-68
2021/08/25 14:57:15;;;;;;;11.70;4.17;;;;;;;16.65;53.47;98942.47;1816036;78;21036;-67
2021/08/25 14:59:42;;;;;;;55.05;8.15;;;;;;;16.58;53.62;98932.57;1812716;78;23038;-67
2021/08/25 15:02:11;;;;;;;27.95;5.90;;;;;;;16.53;53.81;98935.61;1809908;78;21052;-75
2021/08/25 15:04:41;;;;;;;19.45;4.10;;;;;;;16.49;53.83;98932.87;1777599;78;21068;-72
2021/08/25 15:57:33;;;;;;;30.48;7.33;;;;;;;15.15;57.78;98896.83;1769599;76;21012;-63
2021/08/25 16:00:00;;;;;;;8.28;3.70;;;;;;;14.97;58.11;98886.82;1796238;78;20996;-63
2021/08/25 16:02:27;;;;;;;8.10;3.55;;;;;;;14.84;58.43;98887.41;1802540;78;21001;-63
2021/08/25 16:04:53;;;;;;;7.17;3.63;;;;;;;14.77;58.81;98874.41;1826399;78;21024;-64
2021/08/25 16:07:20;;;;;;;4.72;2.98;;;;;;;14.66;58.99;98871.78;1821885;78;22300;-63
2021/08/25 16:09:47;;;;;;;10.23;4.53;;;;;;;14.57;59.40;98863.31;1787753;79;21139;-63
2021/08/25 16:12:14;;;;;;;8.35;3.60;;;;;;;14.45;59.56;98854.08;1784184;79;20981;-65
2021/08/25 16:14:43;;;;;;;10.28;3.90;;;;;;;14.38;59.80;98851.55;1798707;78;20967;-63
2021/08/25 16:17:11;;;;;;;8.50;3.37;;;;;;;14.29;60.13;98852.27;1794177;79;21522;-65
2021/08/25 16:19:48;;;;;;;7.53;4.45;;;;;;;14.21;60.44;98848.91;1758978;78;20948;-65
2021/08/25 16:22:15;;;;;;;6.28;3.62;;;;;;;14.14;60.68;98841.60;1778281;79;20976;-66
2021/08/25 16:24:41;;;;;;;8.65;3.33;;;;;;;14.08;61.07;98835.86;1797021;79;21020;-65
2021/08/25 16:27:10;;;;;;;5.00;3.67;;;;;;;14.04;61.29;98828.35;1802534;79;20941;-65
2021/08/25 16:29:38;;;;;;;5.30;3.75;;;;;;;13.99;61.71;98831.31;1791605;79;21109;-66
2021/08/25 16:32:06;;;;;;;5.47;4.47;;;;;;;13.97;61.91;98830.59;1771500;79;21033;-65
2021/08/25 16:34:32;;;;;;;5.92;4.97;;;;;;;13.89;62.10;98825.08;1853785;76;20926;-65
2021/08/25 16:36:59;;;;;;;7.20;4.95;;;;;;;13.84;62.28;98827.23;1858771;76;21690;-65
2021/08/25 16:39:27;;;;;;;8.60;4.22;;;;;;;13.80;62.44;98815.28;1847880;76;21023;-65
2021/08/25 16:41:54;;;;;;;;;;;;;;;13.78;62.93;98821.11;1859158;76;20976;-66
2021/08/25 16:44:21;;;;;;;11.20;4.50;;;;;;;13.73;63.25;98811.46;1858530;76;21524;-65
2021/08/25 16:46:47;;;;;;;;;;;;;;;13.65;63.41;98802.36;1856620;76;20985;-65
2021/08/25 16:49:14;;;;;;;9.63;4.85;;;;;;;13.59;63.77;98800.20;1852491;76;20165;-64
2021/08/25 16:51:42;;;;;;;9.35;5.42;;;;;;;13.53;63.91;98796.73;1848577;76;21067;-65
2021/08/25 16:54:08;;;;;;;;;;;;;;;13.49;64.12;98796.58;1864582;76;21064;-65
2021/08/25 16:56:37;;;;;;;5.37;4.03;;;;;;;13.46;64.66;98781.07;1851208;76;21434;-65
2021/08/25 16:59:06;;;;;;;5.97;3.80;;;;;;;13.41;64.51;98776.63;1785047;79;21570;-65
2021/08/25 17:01:33;;;;;;;5.10;3.87;;;;;;;13.41;64.78;98775.33;1779764;79;20997;-66
2021/08/25 17:04:01;;;;;;;8.43;4.03;;;;;;;13.42;64.95;98774.40;1780226;79;20981;-66
2021/08/25 17:06:28;;;;;;;6.03;3.67;;;;;;;13.42;65.08;98767.84;1810716;78;21004;-66
2021/08/25 17:08:55;;;;;;;6.83;4.22;;;;;;;13.39;65.24;98761.03;1801031;79;21113;-66
2021/08/25 17:11:24;;;;;;;6.78;4.35;;;;;;;13.38;65.67;98750.65;1800272;78;20964;-66
2021/08/25 17:13:50;;;;;;;6.58;3.92;;;;;;;13.36;65.68;98744.67;1798379;79;21009;-66
2021/08/25 17:16:19;;;;;;;9.87;4.73;;;;;;;13.35;65.77;98739.91;1830514;78;21530;-66
2021/08/25 17:18:46;;;;;;;6.03;4.05;;;;;;;13.34;66.01;98734.80;1796671;79;21004;-66
2021/08/25 17:21:13;;;;;;;7.20;4.28;;;;;;;13.31;66.08;98725.85;1811197;78;22314;-66
2021/08/25 17:23:40;;;;;;;8.33;5.50;;;;;;;13.28;66.67;98719.53;1818938;78;21565;-66
2021/08/25 17:26:08;;;;;;;5.55;4.20;;;;;;;13.23;66.71;98713.75;1820741;78;21047;-66
2021/08/25 17:28:34;;;;;;;6.87;4.12;;;;;;;13.17;67.10;98715.88;1819996;78;28249;-66
2021/08/25 17:31:01;;;;;;;6.10;3.90;;;;;;;13.12;67.10;98710.12;1822644;78;21015;-66
2021/08/25 17:33:28;;;;;;;9.20;4.62;;;;;;;13.09;67.22;98701.19;1823250;78;21521;-66
2021/08/25 17:35:55;;;;;;;6.73;4.33;;;;;;;13.05;67.40;98703.69;1820171;78;20937;-66
2021/08/25 17:38:23;;;;;;;6.33;3.90;;;;;;;13.03;67.62;98692.48;1817569;78;20972;-66
2021/08/25 17:40:50;;;;;;;7.40;3.95;;;;;;;13.02;67.96;98693.41;1823207;78;21453;-66
2021/08/25 17:43:16;;;;;;;8.27;4.10;;;;;;;12.97;67.96;98689.00;1812278;78;20901;-67
2021/08/25 17:45:43;;;;;;;5.63;3.97;;;;;;;12.94;68.37;98687.92;1819392;78;21463;-66
2021/08/25 17:48:10;;;;;;;6.92;4.00;;;;;;;12.91;68.46;98677.64;1811228;77;21464;-72
2021/08/25 17:50:37;;;;;;;;;;;;;;;12.89;68.66;98676.94;1816502;77;21571;-67
2021/08/25 17:53:11;;;;;;;5.57;3.70;;;;;;;12.86;69.32;98668.00;1816797;77;20115;-66
2021/08/25 17:55:39;;;;;;;4.33;3.17;;;;;;;12.83;68.91;98661.67;1822475;78;21289;-68
2021/08/25 17:58:06;;;;;;;5.67;3.85;;;;;;;12.68;69.25;98635.63;1819826;78;22073;-66
2021/08/25 18:00:33;;;;;;;6.00;3.58;;;;;;;12.68;69.25;98635.63;1814949;77;20992;-67
2021/08/25 18:03:00;;;;;;;4.15;3.45;;;;;;;12.76;69.68;98637.22;1820401;77;21357;-66
2021/08/25 18:05:28;;;;;;;4.00;3.25;;;;;;;12.75;70.24;98635.55;1810295;78;20897;-66
2021/08/25 18:07:59;;;;;;;6.65;3.80;;;;;;;12.63;69.89;98616.83;1825500;78;20905;-66
2021/08/25 18:10:29;;;;;;;5.30;3.33;;;;;;;12.75;70.14;98644.72;1805762;77;21995;-66
2021/08/25 18:12:56;;;;;;;3.83;3.00;;;;;;;12.76;70.31;98634.59;1817085;78;20952;-66
2021/08/25 18:15:22;;;;;;;5.75;3.80;;;;;;;12.78;70.31;98634.98;1808592;78;20952;-67
2021/08/25 18:17:50;;;;;;;6.30;4.13;;;;;;;12.79;70.47;98636.64;1804587;77;20960;-66
2021/08/25 18:20:17;;;;;;;4.22;3.12;;;;;;;12.77;70.52;98626.26;1826095;77;21091;-66
2021/08/25 18:22:44;;;;;;;4.58;3.05;;;;;;;12.80;71.50;98622.58;1818077;77;26903;-69
2021/08/25 18:25:12;;;;;;;8.98;3.60;;;;;;;12.79;71.07;98620.92;1814463;77;21032;-72
2021/08/25 18:27:40;;;;;;;4.75;3.80;;;;;;;12.81;70.97;98612.48;1823364;78;21029;-73
2021/08/25 18:30:09;;;;;;;6.28;4.05;;;;;;;12.84;71.07;98602.60;1821301;78;20954;-76
2021/08/25 18:32:36;;;;;;;4.35;3.00;;;;;;;12.87;71.44;98600.23;1821875;78;20940;-73
2021/08/25 18:35:04;;;;;;;5.12;3.47;;;;;;;12.89;71.40;98598.34;1821816;77;21037;-76
2021/08/25 18:37:31;;;;;;;5.35;2.83;;;;;;;12.89;71.60;98587.86;1824057;78;20930;-75
2021/08/25 18:39:57;;;;;;;4.80;3.33;;;;;;;12.90;71.66;98577.73;1826028;78;20953;-73
2021/08/25 18:42:25;;;;;;;4.60;2.93;;;;;;;12.91;71.95;98585.94;1821466;78;22310;-72
2021/08/25 18:44:52;;;;;;;4.78;2.58;;;;;;;12.91;72.28;98573.70;1820182;78;20961;-72
2021/08/25 18:47:19;;;;;;;4.53;2.95;;;;;;;12.91;72.28;98573.70;1830629;78;21499;-71
2021/08/25 18:49:45;;;;;;;5.35;3.25;;;;;;;12.93;72.21;98576.19;1818916;78;21013;-75
2021/08/25 18:52:12;;;;;;;3.07;2.33;;;;;;;12.95;72.22;98576.44;1824761;78;21001;-73
2021/08/25 18:54:39;;;;;;;4.65;3.00;;;;;;;13.00;72.29;98565.63;1820659;77;20882;-72
2021/08/25 18:57:05;;;;;;;3.00;2.37;;;;;;;13.01;72.51;98559.90;1820600;77;20929;-73
2021/08/25 18:59:33;;;;;;;3.47;2.27;;;;;;;13.01;72.59;98558.11;1825606;78;21087;-73
2021/08/25 19:01:59;;;;;;;;;;;;;;;13.02;72.72;98549.28;1821619;77;20934;-72
2021/08/25 19:04:26;;;;;;;3.25;2.33;;;;;;;13.03;73.04;98548.36;1826246;78;20124;-69
2021/08/25 19:06:53;;;;;;;4.95;2.55;;;;;;;13.04;73.32;98536.91;1824919;78;20934;-69
2021/08/25 19:09:21;;;;;;;4.62;2.15;;;;;;;13.02;73.11;98536.19;1783473;79;20892;-70
2021/08/25 19:11:49;;;;;;;3.55;2.17;;;;;;;13.03;73.36;98537.05;1800900;78;22134;-69
2021/08/25 19:16:45;;;;;;;2.95;2.08;;;;;;;13.08;73.46;98525.27;1881023;74;22657;-69
2021/08/25 19:19:11;;;;;;;3.67;2.08;;;;;;;13.06;73.46;98519.30;1851638;76;21051;-69
2021/08/25 19:21:39;;;;;;;2.60;1.77;;;;;;;13.08;73.72;98522.64;1846533;75;22317;-69
2021/08/25 19:24:05;;;;;;;1.80;1.50;;;;;;;13.10;73.67;98515.47;1811157;77;20972;-70
2021/08/25 19:26:32;;;;;;;2.12;1.52;;;;;;;13.13;73.70;98513.09;1775915;79;21586;-80
2021/08/25 19:28:59;;;;;;;3.00;1.60;;;;;;;13.15;74.00;98510.72;1780053;80;20925;-77
2021/08/25 19:31:25;;;;;;;3.62;1.85;;;;;;;13.17;73.93;98505.37;1786914;78;20956;-76
2021/08/25 19:33:52;;;;;;;6.22;1.60;;;;;;;13.19;74.04;98508.69;1811742;77;21063;-70
2021/08/25 19:36:19;;;;;;;2.07;1.40;;;;;;;13.17;74.29;98507.51;1815891;78;20946;-80
2021/08/25 19:38:46;;;;;;;2.27;1.70;;;;;;;13.16;74.37;98496.68;1804273;78;20997;-81
2021/08/25 19:41:12;;;;;;;3.15;1.62;;;;;;;13.18;74.40;98499.99;1805371;77;21044;-69
2021/08/25 19:43:39;;;;;;;3.83;1.33;;;;;;;13.20;74.54;98495.48;1778058;79;21036;-76
2021/08/25 19:46:06;;;;;;;2.55;1.05;;;;;;;13.26;74.65;98498.61;1801499;78;22245;-76
2021/08/25 19:48:33;;;;;;;1.57;1.10;;;;;;;13.30;74.74;98494.78;1770457;79;22139;-74
2021/08/25 19:51:00;;;;;;;1.60;1.13;;;;;;;13.31;74.69;98487.30;1797346;78;20978;-76
2021/08/25 19:53:26;;;;;;;2.33;1.07;;;;;;;13.31;74.81;98479.43;1787802;79;21653;-71
2021/08/25 19:55:53;;;;;;;2.10;1.10;;;;;;;13.30;74.93;98472.50;1773816;79;21048;-71
2021/08/25 19:58:20;;;;;;;1.60;1.07;;;;;;;13.29;75.07;98470.84;1780465;79;21426;-70
2021/08/25 20:00:46;;;;;;;1.50;1.00;;;;;;;13.21;75.17;98455.67;1788187;78;21352;-70
2021/08/25 20:03:13;;;;;;;1.43;1.20;;;;;;;13.29;75.38;98464.29;1794764;78;21114;-71
2021/08/25 20:05:40;;;;;;;0.97;0.87;;;;;;;13.29;75.41;98460.36;1788847;79;20960;-70
2021/08/25 20:08:07;;;;;;;0.88;0.78;;;;;;;13.29;75.41;98465.12;1785077;79;20997;-70
2021/08/25 20:10:35;;;;;;;1.20;0.90;;;;;;;13.32;75.52;98466.67;1795143;78;22426;-70
2021/08/25 20:13:01;;;;;;;1.75;1.05;;;;;;;13.32;75.63;98451.77;1789101;79;20927;-69
2021/08/25 20:15:28;;;;;;;2.33;1.23;;;;;;;13.33;75.79;98449.97;1792113;78;22344;-69
2021/08/25 20:17:57;;;;;;;2.15;1.45;;;;;;;13.34;75.91;98444.63;1787591;79;21029;-70
2021/08/25 20:20:24;;;;;;;1.10;0.97;;;;;;;13.37;75.96;98438.31;1773481;79;21011;-70
2021/08/25 20:22:51;;;;;;;1.55;1.15;;;;;;;13.37;75.96;98438.31;1799313;78;21460;-70
2021/08/25 20:25:18;;;;;;;1.97;1.23;;;;;;;13.38;76.16;98437.34;1790858;78;21603;-69
2021/08/25 20:27:44;;;;;;;2.20;1.80;;;;;;;13.37;76.19;98440.93;1775142;78;21172;-70
2021/08/25 20:30:12;;;;;;;2.50;1.33;;;;;;;13.39;76.23;98433.78;1785397;78;21535;-70
2021/08/25 20:32:39;;;;;;;1.87;1.30;;;;;;;13.39;76.32;98435.09;1785240;78;20908;-70
2021/08/25 20:35:07;;;;;;;2.63;0.90;;;;;;;13.41;76.43;98428.78;1789581;78;21401;-71
2021/08/25 20:37:34;;;;;;;1.07;0.62;;;;;;;13.41;76.44;98426.61;1798413;78;21045;-71
2021/08/25 20:40:00;;;;;;;0.72;0.65;;;;;;;13.42;76.54;98428.30;1774385;80;21535;-70
2021/08/25 20:42:27;;;;;;;0.97;0.70;;;;;;;13.44;76.67;98426.36;1773474;78;20970;-71
2021/08/25 20:44:54;;;;;;;0.95;0.72;;;;;;;13.45;76.73;98414.94;1809651;77;20924;-71
2021/08/25 20:47:20;;;;;;;1.03;0.70;;;;;;;13.45;76.79;98411.00;1788492;79;21471;-70
2021/08/25 20:49:47;;;;;;;1.27;0.55;;;;;;;13.46;76.84;98417.91;1807812;77;20993;-70
2021/08/25 20:52:14;;;;;;;1.10;0.70;;;;;;;13.45;76.95;98405.77;1802234;78;20927;-70
2021/08/25 20:54:40;;;;;;;1.23;0.83;;;;;;;13.45;77.02;98403.14;1800041;78;20977;-70
2021/08/25 20:57:07;;;;;;;3.00;1.67;;;;;;;13.44;77.08;98398.83;1793588;78;21039;-70
2021/08/25 20:59:33;;;;;;;1.13;0.70;;;;;;;13.43;77.15;98401.11;1804560;77;22297;-70
2021/08/25 21:02:00;;;;;;;0.43;0.43;;;;;;;13.45;77.29;98404.45;1778974;80;21613;-70
2021/08/25 21:04:27;;;;;;;0.65;0.47;;;;;;;13.46;77.32;98403.48;1782696;80;21025;-70
2021/08/25 21:06:53;;;;;;;0.40;0.40;;;;;;;13.49;77.38;98397.16;1781986;80;21487;-70
2021/08/25 21:09:20;;;;;;;0.60;0.40;;;;;;;13.53;77.48;98393.36;1780744;80;21038;-70
2021/08/25 21:11:46;;;;;;;1.03;0.30;;;;;;;13.55;77.51;98394.87;1782195;78;21078;-71
2021/08/25 21:14:13;;;;;;;0.50;0.40;;;;;;;13.57;77.62;98387.72;1780030;78;21026;-70
2021/08/25 21:16:40;;;;;;;0.97;0.60;;;;;;;13.60;77.66;98391.89;1777673;78;21222;-71
2021/08/25 21:19:06;;;;;;;0.43;0.30;;;;;;;13.61;77.69;98390.47;1815973;77;20915;-71
2021/08/25 21:21:33;;;;;;;0.70;0.50;;;;;;;13.63;77.77;98387.70;1780135;79;20997;-70
2021/08/25 21:24:00;;;;;;;1.95;0.72;;;;;;;13.67;77.89;98383.89;1778279;80;21211;-71
2021/08/25 21:26:26;;;;;;;2.00;0.57;;;;;;;13.71;77.92;98384.47;1788730;78;20958;-70
2021/08/25 21:28:53;;;;;;;1.57;0.53;;;;;;;13.70;77.94;98381.50;1767115;79;21088;-70
2021/08/25 21:31:20;;;;;;;1.98;0.60;;;;;;;13.71;78.02;98379.22;1777865;80;21247;-71
2021/08/25 21:33:46;;;;;;;1.43;0.57;;;;;;;13.73;78.08;98376.00;1813737;77;20961;-70
2021/08/25 21:36:14;;;;;;;1.62;0.60;;;;;;;13.75;78.13;98375.38;1789654;78;22213;-71
2021/08/25 21:38:40;;;;;;;1.10;0.80;;;;;;;13.74;78.20;98373.23;1807156;77;21026;-70
2021/08/25 21:41:07;;;;;;;1.90;0.63;;;;;;;13.76;78.23;98365.25;1807162;77;22155;-70
2021/08/25 21:43:34;;;;;;;1.57;0.70;;;;;;;13.78;78.28;98364.63;1808964;78;20974;-70
2021/08/25 21:46:01;;;;;;;0.93;0.60;;;;;;;13.79;78.43;98370.25;1803978;77;20971;-70
2021/08/25 21:48:28;;;;;;;1.40;0.93;;;;;;;13.81;78.51;98370.96;1812287;78;22386;-70
2021/08/25 21:50:55;;;;;;;1.80;1.47;;;;;;;13.82;78.48;98369.99;1808661;77;21576;-70
2021/08/25 21:53:21;;;;;;;3.83;1.30;;;;;;;13.80;78.57;98367.48;1804199;77;20990;-70
2021/08/25 21:55:50;;;;;;;3.17;1.25;;;;;;;13.82;78.63;98363.44;1782881;78;21004;-70
2021/08/25 21:58:17;;;;;;;1.62;1.45;;;;;;;13.81;78.71;98356.53;1799066;78;20986;-70
2021/08/25 22:00:48;;;;;;;3.52;1.67;;;;;;;13.83;78.70;98353.28;1797380;78;21066;-70
2021/08/25 22:03:15;;;;;;;2.37;1.52;;;;;;;13.84;78.82;98341.84;1798647;78;21073;-71
2021/08/25 22:05:41;;;;;;;2.07;1.47;;;;;;;13.85;78.86;98342.19;1800579;78;20978;-71
2021/08/25 22:08:08;;;;;;;3.57;1.50;;;;;;;13.85;78.92;98346.13;1800498;78;20947;-71
2021/08/25 22:10:35;;;;;;;2.03;1.60;;;;;;;13.87;79.03;98341.11;1807774;78;20898;-71
2021/08/25 22:13:01;;;;;;;1.70;1.17;;;;;;;13.88;78.99;98334.06;1802608;78;21108;-72
2021/08/25 22:15:28;;;;;;;3.77;2.00;;;;;;;13.91;79.04;98335.11;1803032;78;21477;-72
2021/08/25 22:17:55;;;;;;;2.30;1.40;;;;;;;13.91;79.04;98335.11;1806111;78;21735;-72
2021/08/25 22:20:22;;;;;;;2.77;1.57;;;;;;;13.93;79.18;98327.95;1814130;78;21521;-72
2021/08/25 22:22:48;;;;;;;3.00;1.47;;;;;;;13.95;79.27;98328.67;1800886;78;21697;-72
2021/08/25 22:25:15;;;;;;;2.40;1.30;;;;;;;13.95;79.27;98329.98;1804555;78;21855;-72
2021/08/25 22:27:42;;;;;;;2.98;1.42;;;;;;;13.96;79.35;98327.70;1805191;78;21649;-72
2021/08/25 22:30:10;;;;;;;3.15;1.42;;;;;;;13.96;79.39;98330.32;1812632;78;21451;-71
2021/08/25 22:32:37;;;;;;;2.05;1.50;;;;;;;13.95;79.37;98327.36;1805958;78;21003;-71
2021/08/25 22:35:05;;;;;;;4.97;1.73;;;;;;;13.95;79.52;98323.42;1806400;78;21472;-71
2021/08/25 22:37:31;;;;;;;1.42;1.30;;;;;;;13.84;79.55;98310.36;1799445;78;21081;-71
2021/08/25 22:39:58;;;;;;;2.67;1.43;;;;;;;13.89;79.73;98318.66;1804032;78;21022;-72
2021/08/25 22:42:24;;;;;;;1.70;1.00;;;;;;;13.79;80.10;98323.02;1802246;78;21046;-71
2021/08/25 22:44:51;;;;;;;1.03;0.83;;;;;;;13.62;80.23;98325.24;1800158;78;21005;-71
2021/08/25 22:47:18;;;;;;;1.67;1.20;;;;;;;13.49;80.20;98320.64;1805762;78;21341;-70
2021/08/25 22:49:44;;;;;;;1.12;1.00;;;;;;;13.42;80.19;98323.42;1808195;78;21967;-71
2021/08/25 22:52:11;;;;;;;1.90;1.22;;;;;;;13.37;80.25;98320.34;1800193;78;21627;-71
2021/08/25 22:54:38;;;;;;;2.15;1.20;;;;;;;13.32;80.11;98327.73;1804324;78;21527;-72
2021/08/25 22:57:05;;;;;;;3.40;1.30;;;;;;;13.30;80.26;98325.70;1815149;78;20925;-71
2021/08/25 22:59:31;;;;;;;3.10;1.25;;;;;;;13.28;80.34;98328.95;1813555;78;21003;-71
2021/08/25 23:01:58;;;;;;;1.12;0.90;;;;;;;13.25;80.62;98323.89;1808163;78;21064;-71
2021/08/25 23:04:24;;;;;;;2.45;1.40;;;;;;;13.23;80.85;98323.20;1805911;78;21002;-72
2021/08/25 23:06:51;;;;;;;1.83;1.20;;;;;;;13.21;80.89;98326.77;1805801;78;20966;-70